Terminal Aerodrome Forecast
Issued by NWS

Home | Current Version | Previous Version | Graphics & Text | Print | Product List | Glossary On
Versions: 1 2 3 4 5 6 7 8 9 10 11 12 13
055
FTUS43 KBIS 241720
TAFMOT
TAF
KMOT 241720Z 2418/2518 32011G19KT P6SM SKC
     FM242300 29007KT P6SM SKC
     FM250100 25006KT P6SM SKC
     FM250500 21007KT P6SM SKC
     FM251700 21018G26KT P6SM FEW250=

USA.gov is the U.S. government's official web portal to all federal, state and local government web resources and services.